Time;durP1;ratioP1;P1;durP2;ratioP2;P2;SDS_P1;SDS_P2;PMS_P1;PMS_P2;Temp;Humidity;BMP_temperature;BMP_pressure;BME280_temperature;BME280_humidity;BME280_pressure;Samples;Min_cycle;Max_cycle;Signal;HPM_P1;HPM_P2
2021/09/09 00:01:20;;;;;;;14.05;4.32;;;;;;;15.34;60.50;101340.63;4900550;29;20143;-69
2021/09/09 00:03:45;;;;;;;8.63;4.47;;;;;;;15.59;60.46;101360.78;4910976;29;20135;-69
2021/09/09 00:06:11;;;;;;;10.57;4.15;;;;;;;14.92;61.41;101313.47;4901687;29;20051;-71
2021/09/09 00:08:36;;;;;;;19.23;4.82;;;;;;;15.25;60.84;101340.66;4901797;29;20418;-70
2021/09/09 00:11:02;;;;;;;9.98;4.57;;;;;;;15.47;60.72;101359.94;4908851;29;20044;-70
2021/09/09 00:13:27;;;;;;;13.93;3.53;;;;;;;15.12;60.95;101335.41;4912142;29;20143;-69
2021/09/09 00:15:53;;;;;;;11.65;3.97;;;;;;;15.32;60.92;101355.63;4911495;29;20080;-69
2021/09/09 00:18:18;;;;;;;13.10;4.65;;;;;;;15.19;61.88;101368.00;4909596;29;20151;-70
2021/09/09 00:20:44;;;;;;;8.50;4.35;;;;;;;14.95;61.67;101324.91;4904710;29;20107;-70
2021/09/09 00:23:10;;;;;;;8.88;4.32;;;;;;;15.08;60.84;101311.66;4909161;29;20040;-69
2021/09/09 00:25:36;;;;;;;9.60;4.75;;;;;;;15.29;60.81;101345.03;4910355;29;20044;-69
2021/09/09 00:28:01;;;;;;;11.65;3.70;;;;;;;15.40;60.42;101356.44;4913171;29;20226;-69
2021/09/09 00:30:27;;;;;;;10.77;4.35;;;;;;;15.32;60.60;101331.81;4899138;29;20040;-71
2021/09/09 00:32:52;;;;;;;13.85;4.00;;;;;;;15.75;59.28;101358.06;4902680;29;20386;-69
2021/09/09 00:35:18;;;;;;;11.55;4.00;;;;;;;15.62;59.31;101330.78;4937568;28;20036;-69
2021/09/09 00:37:43;;;;;;;9.73;4.35;;;;;;;15.49;59.83;101356.41;4901459;29;20034;-70
2021/09/09 00:40:10;;;;;;;16.60;4.40;;;;;;;15.41;60.37;101360.88;4908120;29;20036;-71
2021/09/09 00:42:35;;;;;;;8.13;4.03;;;;;;;15.50;60.25;101358.19;4911804;29;20036;-70
2021/09/09 00:45:01;;;;;;;9.18;5.05;;;;;;;15.11;60.67;101343.38;4900370;29;20140;-70
2021/09/09 00:47:27;;;;;;;10.75;3.17;;;;;;;15.37;60.41;101348.53;4901423;29;20052;-71
2021/09/09 00:49:52;;;;;;;7.63;3.13;;;;;;;15.25;60.70;101353.88;4910169;29;20039;-69
2021/09/09 00:52:17;;;;;;;18.20;4.47;;;;;;;15.08;60.91;101322.25;4910902;29;20028;-70
2021/09/09 00:54:45;;;;;;;7.40;3.58;;;;;;;14.95;60.82;101330.19;4906243;29;20107;-70
2021/09/09 00:57:13;;;;;;;11.57;4.65;;;;;;;15.01;61.18;101357.47;4906783;29;20040;-72
2021/09/09 00:59:38;;;;;;;5.57;3.33;;;;;;;14.98;61.07;101356.63;4910074;29;20040;-72
2021/09/09 01:02:05;;;;;;;9.77;4.07;;;;;;;15.01;60.70;101323.13;4902498;29;20024;-71
2021/09/09 01:04:30;;;;;;;8.05;3.70;;;;;;;15.13;60.25;101344.25;4900431;29;20514;-71
2021/09/09 01:06:56;;;;;;;14.40;4.63;;;;;;;15.03;60.96;101353.97;4913011;29;20371;-72
2021/09/09 01:09:22;;;;;;;8.15;3.88;;;;;;;14.90;60.65;101320.53;4905401;29;20402;-71
2021/09/09 01:11:48;;;;;;;15.68;4.38;;;;;;;15.10;60.75;101347.78;4909068;29;20036;-71
2021/09/09 01:14:16;;;;;;;7.53;3.78;;;;;;;14.86;60.47;101314.34;4910824;29;20063;-69
2021/09/09 01:16:43;;;;;;;10.82;3.95;;;;;;;14.79;61.19;101320.53;4907491;29;20390;-69
2021/09/09 01:19:09;;;;;;;11.68;4.10;;;;;;;14.92;60.97;101345.19;4903537;29;20078;-68
2021/09/09 01:21:36;;;;;;;9.43;4.97;;;;;;;14.75;61.26;101345.25;4895113;29;20115;-69
2021/09/09 01:24:02;;;;;;;9.88;4.75;;;;;;;14.67;61.39;101324.09;4912112;29;20036;-69
2021/09/09 01:26:30;;;;;;;18.33;4.85;;;;;;;14.74;61.23;101328.47;4900685;29;20066;-69
2021/09/09 01:28:58;;;;;;;8.90;3.85;;;;;;;14.61;62.06;101350.53;4908930;29;20036;-69
2021/09/09 01:31:24;;;;;;;10.05;4.43;;;;;;;14.65;62.05;101349.63;4907745;29;20048;-69
2021/09/09 01:33:56;;;;;;;17.20;3.53;;;;;;;14.51;61.96;101306.50;4910812;29;20148;-70
2021/09/09 01:36:22;;;;;;;13.88;4.65;;;;;;;14.63;62.23;101334.69;4911100;29;20060;-70
2021/09/09 01:38:48;;;;;;;11.48;3.13;;;;;;;14.63;62.38;101345.25;4907749;29;20047;-72
2021/09/09 01:41:14;;;;;;;11.55;3.50;;;;;;;14.50;62.38;101313.53;4899654;29;20434;-70
2021/09/09 01:43:39;;;;;;;10.32;3.45;;;;;;;14.72;61.66;101324.09;4907428;29;20043;-71
2021/09/09 01:46:04;;;;;;;6.82;4.10;;;;;;;15.12;60.54;101314.25;4898305;29;20119;-70
2021/09/09 01:48:30;;;;;;;10.77;4.57;;;;;;;14.95;61.15;101348.69;4908584;29;20115;-73
2021/09/09 01:50:56;;;;;;;7.40;4.13;;;;;;;15.17;60.10;101341.59;4895184;29;20115;-70
2021/09/09 01:53:21;;;;;;;8.80;3.83;;;;;;;14.69;61.45;101342.59;4932437;28;20048;-74
2021/09/09 01:55:46;;;;;;;7.85;4.68;;;;;;;14.46;61.36;101311.78;4903261;29;20184;-70
2021/09/09 01:58:12;;;;;;;10.63;4.25;;;;;;;14.54;61.79;101340.88;4909037;29;20039;-71
2021/09/09 02:00:37;;;;;;;11.13;3.88;;;;;;;14.63;61.58;101337.31;4909306;29;20037;-71
2021/09/09 02:03:03;;;;;;;16.02;3.67;;;;;;;14.42;62.05;101336.47;4897136;29;20503;-70
2021/09/09 02:05:28;;;;;;;19.92;5.07;;;;;;;14.68;61.32;101344.38;4908849;29;20490;-70
2021/09/09 02:07:54;;;;;;;14.40;4.45;;;;;;;14.80;60.64;101342.56;4909022;29;20563;-72
2021/09/09 02:10:19;;;;;;;5.90;3.78;;;;;;;14.71;60.99;101349.63;4903840;29;20040;-69
2021/09/09 02:12:46;;;;;;;7.55;3.88;;;;;;;14.17;62.39;101335.56;4900775;29;20036;-70
2021/09/09 02:15:12;;;;;;;13.40;4.25;;;;;;;13.72;63.37;101318.84;4909485;29;20040;-71
2021/09/09 02:17:37;;;;;;;13.38;4.93;;;;;;;13.92;63.36;101345.22;4904050;29;20099;-71
2021/09/09 02:20:05;;;;;;;7.30;4.00;;;;;;;13.74;63.38;101322.31;4907734;29;20124;-71
2021/09/09 02:22:31;;;;;;;21.25;5.00;;;;;;;14.09;62.64;101321.47;4905451;29;20032;-70
2021/09/09 02:24:56;;;;;;;10.77;4.10;;;;;;;14.22;61.72;101315.34;4939071;28;20540;-70
2021/09/09 02:27:22;;;;;;;8.27;3.72;;;;;;;14.06;62.38;101309.16;4907934;29;20036;-70
2021/09/09 02:29:47;;;;;;;16.98;4.13;;;;;;;14.17;61.89;101308.31;4911818;29;20386;-69
2021/09/09 02:32:13;;;;;;;7.47;4.93;;;;;;;14.00;62.27;101309.19;4908881;29;20051;-70
2021/09/09 02:34:38;;;;;;;18.40;3.95;;;;;;;14.37;61.28;101332.91;4905190;29;20055;-70
2021/09/09 02:37:04;;;;;;;9.02;3.97;;;;;;;14.29;60.94;101318.84;4902657;29;20040;-70
2021/09/09 02:39:30;;;;;;;17.85;4.18;;;;;;;14.49;60.63;101337.31;4901745;29;20179;-70
2021/09/09 02:41:55;;;;;;;8.23;3.95;;;;;;;14.35;60.84;101353.16;4911047;29;20127;-72
2021/09/09 02:44:21;;;;;;;10.23;4.82;;;;;;;14.12;61.05;101326.78;4900312;29;21000;-74
2021/09/09 02:46:46;;;;;;;7.20;3.67;;;;;;;14.25;61.22;101347.00;4902137;29;20054;-70
2021/09/09 02:49:12;;;;;;;7.68;4.40;;;;;;;14.26;61.52;101355.81;4907492;29;20051;-71
2021/09/09 02:51:37;;;;;;;10.15;4.57;;;;;;;14.56;60.85;101363.75;4906049;29;20032;-70
2021/09/09 02:54:03;;;;;;;8.45;4.63;;;;;;;14.30;61.31;101347.88;4897207;29;20043;-71
2021/09/09 02:56:28;;;;;;;10.65;3.95;;;;;;;14.41;60.79;101345.25;4901814;29;20482;-70
2021/09/09 02:58:57;;;;;;;8.82;3.80;;;;;;;14.40;60.96;101350.50;4907563;29;20072;-72
2021/09/09 03:01:22;;;;;;;7.70;4.18;;;;;;;14.42;61.04;101357.59;4906722;29;20043;-69
2021/09/09 03:03:48;;;;;;;11.88;3.85;;;;;;;14.36;60.73;101325.88;4902831;29;20558;-71
2021/09/09 03:06:13;;;;;;;7.40;3.97;;;;;;;14.39;61.17;101357.56;4904134;29;20478;-71
2021/09/09 03:08:39;;;;;;;10.40;3.97;;;;;;;14.36;61.08;101361.09;4907815;29;20302;-70
2021/09/09 03:11:04;;;;;;;6.47;4.05;;;;;;;14.23;61.70;101364.59;4904831;29;20040;-70
2021/09/09 03:13:30;;;;;;;8.88;4.63;;;;;;;14.31;61.70;101372.53;4907856;29;20082;-71
2021/09/09 03:15:55;;;;;;;7.22;4.45;;;;;;;13.99;62.11;101341.72;4901381;29;20143;-70
2021/09/09 03:18:21;;;;;;;10.73;4.40;;;;;;;13.90;62.44;101339.06;4902776;29;20438;-71
2021/09/09 03:20:46;;;;;;;11.77;4.55;;;;;;;14.10;61.55;101342.59;4908011;29;20450;-71
2021/09/09 03:23:12;;;;;;;14.85;4.57;;;;;;;14.27;60.89;101349.66;4910050;29;20036;-71
2021/09/09 03:25:37;;;;;;;6.72;3.00;;;;;;;14.30;61.23;101379.56;4906972;29;20494;-70
2021/09/09 03:28:03;;;;;;;9.40;4.60;;;;;;;14.41;61.09;101374.28;4907401;29;20498;-74
2021/09/09 03:30:28;;;;;;;6.22;4.00;;;;;;;14.45;60.88;101372.53;4908829;29;20432;-69
2021/09/09 03:32:54;;;;;;;10.20;5.28;;;;;;;14.41;60.37;101370.78;4903362;29;20040;-69
2021/09/09 03:35:19;;;;;;;7.72;4.10;;;;;;;14.31;61.02;101360.22;4908087;29;20476;-69
2021/09/09 03:37:45;;;;;;;11.20;5.40;;;;;;;14.27;60.83;101353.16;4907085;29;20040;-70
2021/09/09 03:40:11;;;;;;;9.10;3.65;;;;;;;14.63;59.93;101355.81;4900181;29;20040;-69
2021/09/09 03:42:36;;;;;;;9.73;3.78;;;;;;;14.61;60.07;101365.50;4905862;29;20047;-70
2021/09/09 03:45:03;;;;;;;9.43;4.47;;;;;;;14.66;59.98;101383.13;4907702;29;20029;-70
2021/09/09 03:47:28;;;;;;;6.47;3.58;;;;;;;14.32;60.56;101355.81;4908424;29;20049;-69
2021/09/09 03:49:53;;;;;;;7.43;4.05;;;;;;;14.92;59.66;101372.50;4907887;29;20036;-70
2021/09/09 03:52:19;;;;;;;9.90;4.72;;;;;;;14.61;60.36;101383.97;4904309;29;20044;-70
2021/09/09 03:54:44;;;;;;;25.23;4.85;;;;;;;14.68;60.21;101388.38;4899670;29;20028;-70
2021/09/09 03:57:10;;;;;;;7.40;4.07;;;;;;;14.54;60.41;101398.97;4906981;29;20043;-70
2021/09/09 03:59:35;;;;;;;6.70;3.80;;;;;;;14.71;59.96;101394.56;4908171;29;20048;-70
2021/09/09 04:02:03;;;;;;;28.00;4.32;;;;;;;14.43;60.66;101398.94;4909221;29;21478;-74
2021/09/09 04:04:29;;;;;;;12.10;4.28;;;;;;;14.62;60.08;101373.44;4907892;29;20088;-70
2021/09/09 04:06:55;;;;;;;14.00;5.22;;;;;;;14.74;60.14;101398.94;4897117;29;20056;-69
2021/09/09 04:09:21;;;;;;;8.30;4.55;;;;;;;14.69;60.25;101403.34;4932751;28;20072;-71
2021/09/09 04:11:46;;;;;;;8.60;4.13;;;;;;;14.61;60.57;101405.13;4908476;29;20402;-69
2021/09/09 04:14:12;;;;;;;16.77;4.60;;;;;;;14.63;60.66;101409.50;4941033;28;20088;-70
2021/09/09 04:16:37;;;;;;;9.90;5.18;;;;;;;14.19;61.81;101405.09;4913728;29;20039;-70
2021/09/09 04:19:03;;;;;;;9.07;5.15;;;;;;;14.04;62.18;101405.06;4911991;29;20115;-70
2021/09/09 04:21:29;;;;;;;9.32;4.50;;;;;;;14.18;61.67;101379.56;4907912;29;20054;-71
2021/09/09 04:23:55;;;;;;;17.80;4.82;;;;;;;14.50;61.16;101407.75;4918180;29;20123;-68
2021/09/09 04:26:21;;;;;;;10.27;4.47;;;;;;;14.84;60.25;101408.59;4916533;29;20498;-70
2021/09/09 04:28:46;;;;;;;12.65;4.72;;;;;;;14.26;61.59;101396.28;4912531;29;20667;-71
2021/09/09 04:31:12;;;;;;;7.35;4.30;;;;;;;14.18;61.66;101394.53;4909665;29;20040;-75
2021/09/09 04:33:37;;;;;;;9.75;5.18;;;;;;;14.16;61.59;101383.94;4908560;29;20524;-69
2021/09/09 04:36:03;;;;;;;11.45;5.47;;;;;;;14.09;61.35;101371.63;4909620;29;20028;-70
2021/09/09 04:38:28;;;;;;;10.43;4.35;;;;;;;14.11;62.30;101389.22;4910854;29;20356;-71
2021/09/09 04:40:54;;;;;;;10.77;4.97;;;;;;;14.57;60.96;101394.56;4923789;29;20037;-69
2021/09/09 04:43:19;;;;;;;12.25;4.60;;;;;;;14.41;61.27;101397.19;4912998;29;20600;-71
2021/09/09 04:45:45;;;;;;;8.90;4.78;;;;;;;14.18;61.73;101399.81;4907633;29;20573;-70
2021/09/09 04:48:10;;;;;;;7.35;4.47;;;;;;;14.39;60.90;101370.75;4907925;29;20310;-70
2021/09/09 04:50:36;;;;;;;17.83;5.18;;;;;;;14.54;60.72;101396.34;4902034;29;20044;-68
2021/09/09 04:53:01;;;;;;;23.83;4.35;;;;;;;14.34;61.40;101399.81;4908114;29;20737;-69
2021/09/09 04:55:26;;;;;;;12.55;4.88;;;;;;;14.29;61.23;101392.78;4906377;29;20061;-69
2021/09/09 04:57:52;;;;;;;7.40;4.95;;;;;;;14.08;62.01;101391.00;4909063;29;20040;-69
2021/09/09 05:00:18;;;;;;;8.05;4.22;;;;;;;14.25;61.47;101389.25;4906938;29;20084;-71
2021/09/09 05:02:43;;;;;;;8.98;4.03;;;;;;;14.54;60.87;101393.69;4904840;29;20058;-70
2021/09/09 05:05:09;;;;;;;10.98;4.55;;;;;;;14.43;60.52;101376.94;4904790;29;20039;-70
2021/09/09 05:07:35;;;;;;;8.70;4.15;;;;;;;14.37;60.71;101372.53;4909667;29;20119;-70
2021/09/09 05:10:01;;;;;;;10.05;4.65;;;;;;;14.62;60.06;101398.97;4897009;29;20047;-70
2021/09/09 05:12:27;;;;;;;8.63;3.97;;;;;;;14.55;60.41;101395.44;4903867;29;20683;-72
2021/09/09 05:14:52;;;;;;;18.73;4.53;;;;;;;14.43;60.51;101369.00;4930948;28;20035;-68
2021/09/09 05:17:18;;;;;;;19.58;4.97;;;;;;;14.87;59.55;101395.41;4898882;29;20486;-70
2021/09/09 05:19:43;;;;;;;8.23;4.55;;;;;;;15.32;58.54;101390.88;4898526;29;20648;-70
2021/09/09 05:22:08;;;;;;;10.15;4.05;;;;;;;15.79;57.48;101395.09;4910946;29;20047;-70
2021/09/09 05:24:34;;;;;;;13.95;4.43;;;;;;;15.35;57.02;101393.50;4905209;29;20047;-71
2021/09/09 05:26:59;;;;;;;8.73;5.00;;;;;;;15.85;56.57;101385.34;4908201;29;20397;-70
2021/09/09 05:29:25;;;;;;;13.60;5.32;;;;;;;15.70;57.03;101389.84;4905689;29;20995;-69
2021/09/09 05:31:50;;;;;;;6.82;4.35;;;;;;;15.79;56.54;101363.31;4901237;29;20115;-70
2021/09/09 05:34:16;;;;;;;8.95;4.38;;;;;;;16.24;55.43;101363.88;4897316;29;20043;-70
2021/09/09 05:36:41;;;;;;;13.40;5.88;;;;;;;15.97;56.17;101380.88;4900864;29;20456;-70
2021/09/09 05:39:07;;;;;;;13.05;4.78;;;;;;;16.20;55.33;101388.66;4909281;29;20047;-72
2021/09/09 05:41:32;;;;;;;11.65;5.57;;;;;;;15.90;55.88;101352.69;4907752;29;20044;-70
2021/09/09 05:43:58;;;;;;;8.80;4.85;;;;;;;16.29;55.30;101361.19;4905617;29;20109;-71
2021/09/09 05:46:24;;;;;;;12.15;5.05;;;;;;;16.80;54.45;101363.41;4900141;29;20691;-70
2021/09/09 05:48:49;;;;;;;11.95;5.47;;;;;;;17.25;53.60;101377.03;4924889;29;20383;-70
2021/09/09 05:51:15;;;;;;;12.13;5.82;;;;;;;16.72;54.50;101386.44;4907330;29;20088;-71
2021/09/09 05:53:40;;;;;;;10.25;5.13;;;;;;;16.27;55.73;101359.44;4906681;29;20128;-71
2021/09/09 05:56:06;;;;;;;10.25;5.18;;;;;;;16.21;56.22;101376.28;4898472;29;20406;-72
2021/09/09 05:58:31;;;;;;;11.10;4.88;;;;;;;16.29;55.96;101373.56;4907254;29;20032;-73
2021/09/09 06:00:57;;;;;;;9.27;5.20;;;;;;;16.32;55.13;101377.09;4903456;29;20405;-72
2021/09/09 06:03:25;;;;;;;17.48;5.70;;;;;;;16.61;54.69;101362.69;4911111;29;20072;-72
2021/09/09 06:06:01;;;;;;;7.25;4.57;;;;;;;16.54;54.72;101371.59;4895844;29;20044;-72
2021/09/09 06:08:27;;;;;;;13.55;5.40;;;;;;;16.78;54.65;101362.50;4901425;29;20039;-71
2021/09/09 06:10:53;;;;;;;13.02;5.22;;;;;;;16.82;54.36;101346.59;4903010;29;20024;-72
2021/09/09 06:13:19;;;;;;;24.55;6.60;;;;;;;16.45;55.24;101360.16;4904677;29;20028;-70
2021/09/09 06:15:44;;;;;;;15.90;4.78;;;;;;;16.64;54.92;101334.38;4896581;29;20493;-73
2021/09/09 06:18:10;;;;;;;9.90;4.35;;;;;;;16.52;54.82;101366.28;4903060;29;20063;-71
2021/09/09 06:20:35;;;;;;;11.95;4.80;;;;;;;16.53;54.96;101343.31;4902301;29;20096;-71
2021/09/09 06:23:01;;;;;;;14.02;5.53;;;;;;;17.39;53.63;101356.50;4900558;29;20136;-70
2021/09/09 06:25:26;;;;;;;10.50;5.50;;;;;;;17.62;52.11;101355.34;4908112;29;20135;-71
2021/09/09 06:27:52;;;;;;;16.00;7.03;;;;;;;17.18;52.81;101362.09;4907716;29;20123;-69
2021/09/09 06:30:17;;;;;;;11.70;7.72;;;;;;;17.52;52.98;101367.88;4906643;29;20532;-70
2021/09/09 06:32:43;;;;;;;9.25;5.13;;;;;;;17.64;51.94;101343.81;4931936;29;20032;-70
2021/09/09 06:35:09;;;;;;;12.05;5.18;;;;;;;17.44;51.75;101340.53;4907446;29;20103;-68
2021/09/09 06:37:34;;;;;;;15.02;4.32;;;;;;;17.46;51.58;101336.97;4901898;29;20040;-70
2021/09/09 06:39:59;;;;;;;6.55;4.13;;;;;;;17.38;51.81;101333.56;4898804;29;20097;-69
2021/09/09 06:42:26;;;;;;;10.82;4.15;;;;;;;17.72;51.69;101357.84;4904315;29;20112;-67
2021/09/09 06:44:52;;;;;;;10.32;4.68;;;;;;;17.86;51.74;101351.47;4910540;29;20131;-70
2021/09/09 06:47:17;;;;;;;10.57;4.82;;;;;;;18.18;50.78;101352.75;4907958;29;20139;-70
2021/09/09 06:49:43;;;;;;;13.02;4.97;;;;;;;18.17;50.42;101332.41;4923023;29;20152;-69
2021/09/09 06:52:08;;;;;;;11.65;4.90;;;;;;;18.34;49.47;101355.13;4904756;29;20119;-70
2021/09/09 06:54:34;;;;;;;9.95;4.13;;;;;;;18.27;48.61;101336.69;4906656;29;20035;-70
2021/09/09 06:56:59;;;;;;;8.30;4.47;;;;;;;18.44;48.18;101355.84;4907101;29;20039;-70
2021/09/09 06:59:25;;;;;;;13.40;3.90;;;;;;;18.21;48.94;101355.34;4909508;29;20048;-69
2021/09/09 07:01:50;;;;;;;7.30;3.63;;;;;;;18.39;48.30;101363.03;4908063;29;20055;-67
2021/09/09 07:04:16;;;;;;;10.15;4.88;;;;;;;18.41;48.19;101336.44;4908599;29;20043;-72
2021/09/09 07:06:41;;;;;;;6.32;3.75;;;;;;;18.59;47.62;101336.13;4908834;29;20442;-67
2021/09/09 07:09:07;;;;;;;13.10;5.13;;;;;;;18.45;46.72;101343.44;4908916;29;20069;-67
2021/09/09 07:11:32;;;;;;;8.90;5.00;;;;;;;18.67;46.85;101368.72;4907266;29;20087;-68
2021/09/09 07:13:58;;;;;;;9.25;4.63;;;;;;;19.05;47.28;101363.63;4905532;29;20063;-68
2021/09/09 07:16:23;;;;;;;13.88;4.65;;;;;;;19.02;46.59;101351.28;4914970;29;20553;-72
2021/09/09 07:18:49;;;;;;;10.02;4.60;;;;;;;18.93;45.94;101354.97;4906510;29;20035;-68
2021/09/09 07:21:14;;;;;;;7.00;3.17;;;;;;;18.91;46.99;101370.09;4907215;29;20036;-72
2021/09/09 07:23:40;;;;;;;14.80;4.20;;;;;;;18.94;46.47;101353.19;4905331;29;20028;-68
2021/09/09 07:26:06;;;;;;;7.05;3.63;;;;;;;18.81;46.97;101343.72;4909298;29;20044;-68
2021/09/09 07:28:31;;;;;;;8.82;4.30;;;;;;;19.15;46.98;101362.53;4908703;29;20044;-74
2021/09/09 07:30:57;;;;;;;11.13;4.22;;;;;;;19.31;46.20;101355.09;4909359;29;20032;-68
2021/09/09 07:33:22;;;;;;;11.50;4.65;;;;;;;19.42;46.29;101350.44;4907036;29;20122;-69
2021/09/09 07:35:48;;;;;;;7.53;4.05;;;;;;;19.32;45.89;101340.91;4908819;29;20021;-71
2021/09/09 07:38:13;;;;;;;6.53;4.28;;;;;;;19.44;45.97;101331.78;4936590;29;20032;-69
2021/09/09 07:40:39;;;;;;;8.27;5.53;;;;;;;19.35;45.73;101324.88;4904337;29;20509;-67
2021/09/09 07:43:04;;;;;;;15.85;5.00;;;;;;;19.44;45.19;101337.09;4906561;29;20083;-69
2021/09/09 07:45:30;;;;;;;8.60;4.82;;;;;;;19.67;45.74;101333.94;4903276;29;20041;-68
2021/09/09 07:47:56;;;;;;;11.02;4.28;;;;;;;19.87;44.49;101357.47;4899622;29;20063;-68
2021/09/09 07:50:21;;;;;;;13.63;4.93;;;;;;;20.16;45.27;101352.31;4912569;29;20039;-70
2021/09/09 07:52:47;;;;;;;15.13;5.45;;;;;;;20.39;44.86;101354.41;4901977;29;20043;-68
2021/09/09 07:55:12;;;;;;;7.97;4.50;;;;;;;20.25;45.00;101356.50;4899701;29;20039;-67
2021/09/09 07:57:38;;;;;;;11.02;4.82;;;;;;;20.45;44.58;101351.56;4911874;29;20047;-68
2021/09/09 08:00:05;;;;;;;10.10;5.60;;;;;;;20.06;45.19;101323.25;4938774;28;20064;-67
2021/09/09 08:02:30;;;;;;;10.18;5.13;;;;;;;20.27;45.13;101332.50;4910181;29;20084;-69
2021/09/09 08:04:55;;;;;;;11.57;4.75;;;;;;;20.58;44.48;101349.50;4910880;29;20486;-69
2021/09/09 08:07:21;;;;;;;18.05;4.50;;;;;;;20.28;45.29;101320.94;4905855;29;20028;-72
2021/09/09 08:09:46;;;;;;;11.10;4.93;;;;;;;20.32;45.29;101341.25;4910695;29;20046;-71
2021/09/09 08:12:12;;;;;;;16.65;5.45;;;;;;;20.65;44.85;101316.41;4909904;29;20044;-70
2021/09/09 08:14:37;;;;;;;10.20;4.53;;;;;;;20.57;44.67;101312.19;4904707;29;20032;-70
2021/09/09 08:17:03;;;;;;;22.45;5.45;;;;;;;20.58;44.65;101330.84;4912305;29;20036;-70
2021/09/09 08:19:29;;;;;;;10.18;4.90;;;;;;;20.85;44.41;101312.31;4906650;29;20032;-68
2021/09/09 08:21:54;;;;;;;10.60;4.43;;;;;;;21.06;45.11;101310.81;4899993;29;20044;-70
2021/09/09 08:24:20;;;;;;;16.20;4.47;;;;;;;21.05;44.04;101322.41;4902998;29;20055;-71
2021/09/09 08:26:45;;;;;;;10.18;5.55;;;;;;;20.84;45.25;101313.25;4900788;29;20134;-71
2021/09/09 08:29:11;;;;;;;11.35;3.83;;;;;;;20.87;44.77;101329.16;4909782;29;20556;-71
2021/09/09 08:31:36;;;;;;;10.27;4.90;;;;;;;21.11;44.34;101313.34;4912748;29;20028;-71
2021/09/09 08:34:02;;;;;;;9.10;4.47;;;;;;;21.79;43.72;101326.41;4901241;29;20031;-71
2021/09/09 08:36:27;;;;;;;20.27;5.63;;;;;;;21.15;43.53;101309.69;4907045;29;20028;-71
2021/09/09 08:38:53;;;;;;;7.00;4.13;;;;;;;21.15;43.87;101305.22;4904347;29;20164;-71
2021/09/09 08:41:19;;;;;;;25.83;6.10;;;;;;;21.45;43.92;101298.09;4901617;29;20527;-70
2021/09/09 08:43:45;;;;;;;13.30;5.18;;;;;;;21.73;43.39;101304.34;4908049;29;20172;-70
2021/09/09 08:46:12;;;;;;;11.20;3.70;;;;;;;21.79;42.89;101298.81;4907021;29;20044;-71
2021/09/09 08:48:42;;;;;;;7.68;4.53;;;;;;;21.74;42.63;101276.72;4905241;29;20062;-71
2021/09/09 08:51:08;;;;;;;12.45;4.10;;;;;;;22.18;41.91;101288.59;4909163;29;20076;-71
2021/09/09 08:53:34;;;;;;;7.60;3.17;;;;;;;22.37;40.76;101298.69;4909246;29;20070;-72
2021/09/09 08:56:00;;;;;;;6.32;3.17;;;;;;;22.63;39.77;101297.78;4906860;29;20545;-71
2021/09/09 08:58:25;;;;;;;9.45;3.50;;;;;;;22.81;37.37;101288.22;4909287;29;20036;-71
2021/09/09 09:01:12;;;;;;;10.05;3.20;;;;;;;23.27;38.10;101283.81;4909619;29;20044;-72
2021/09/09 09:03:58;;;;;;;20.27;4.03;;;;;;;22.48;38.56;101288.50;4908961;29;20095;-70
2021/09/09 09:06:26;;;;;;;20.95;4.28;;;;;;;22.51;39.23;101289.25;4907327;29;20055;-69
2021/09/09 09:08:54;;;;;;;6.18;3.95;;;;;;;22.41;39.85;101262.91;4907517;29;20044;-71
2021/09/09 09:11:28;;;;;;;14.23;4.60;;;;;;;22.86;37.08;101240.72;4909638;29;20044;-71
2021/09/09 09:13:54;;;;;;;29.73;5.03;;;;;;;23.53;37.47;101267.59;4911398;29;20035;-71
2021/09/09 09:16:21;;;;;;;7.15;3.28;;;;;;;23.83;37.38;101275.31;4902593;29;20063;-72
2021/09/09 09:18:47;;;;;;;15.27;4.05;;;;;;;22.41;38.57;101277.16;4907961;29;20051;-71
2021/09/09 09:21:14;;;;;;;5.53;3.58;;;;;;;22.49;38.54;101269.69;4909107;29;20485;-69
2021/09/09 09:23:53;;;;;;;13.85;3.22;;;;;;;23.32;37.37;101272.00;4907468;29;20032;-71
2021/09/09 09:26:19;;;;;;;17.20;5.30;;;;;;;23.36;36.12;101236.09;4909839;29;20036;-69
2021/09/09 09:28:50;;;;;;;7.47;3.70;;;;;;;23.93;36.50;101240.97;4937634;29;20059;-69
2021/09/09 09:31:17;;;;;;;6.50;3.33;;;;;;;23.89;35.16;101263.47;4911575;29;20028;-72
2021/09/09 09:33:46;;;;;;;17.13;4.57;;;;;;;23.75;34.67;101238.13;4911466;29;20111;-70
2021/09/09 09:36:17;;;;;;;9.73;4.30;;;;;;;23.92;34.42;101266.03;4908327;29;20040;-70
2021/09/09 09:38:43;;;;;;;9.82;4.30;;;;;;;24.26;34.57;101248.50;4907961;29;20032;-69
2021/09/09 09:41:09;;;;;;;8.73;4.07;;;;;;;24.12;34.54;101236.56;4910393;29;20032;-71
2021/09/09 09:43:35;;;;;;;11.13;3.38;;;;;;;23.71;35.25;101247.19;4908708;29;20048;-70
2021/09/09 09:46:02;;;;;;;25.65;4.68;;;;;;;23.31;34.84;101243.44;4911007;29;20071;-71
2021/09/09 09:48:30;;;;;;;26.08;4.75;;;;;;;23.64;35.35;101245.69;4936154;29;20513;-70
2021/09/09 09:50:56;;;;;;;15.68;3.65;;;;;;;24.25;34.18;101227.97;4905332;29;20058;-71
2021/09/09 09:53:22;;;;;;;9.77;3.83;;;;;;;24.64;33.01;101234.28;4903716;29;20490;-69
2021/09/09 09:55:48;;;;;;;9.48;5.35;;;;;;;23.68;33.66;101220.53;4922178;29;20028;-70
2021/09/09 09:58:17;;;;;;;9.43;3.97;;;;;;;23.16;34.77;101244.94;4905634;29;20490;-70
2021/09/09 10:00:43;;;;;;;10.93;3.63;;;;;;;23.15;34.77;101211.03;4911052;29;20024;-70
2021/09/09 10:03:09;;;;;;;12.45;3.88;;;;;;;23.23;34.01;101207.22;4930660;29;20036;-70
2021/09/09 10:05:37;;;;;;;13.07;4.32;;;;;;;24.13;33.84;101207.94;4939732;28;20521;-69
2021/09/09 10:08:04;;;;;;;11.05;4.10;;;;;;;23.86;32.87;101204.63;4904412;29;20038;-70
2021/09/09 10:10:29;;;;;;;7.57;4.47;;;;;;;23.94;34.05;101230.16;4907363;29;20036;-70
2021/09/09 10:12:55;;;;;;;8.15;3.58;;;;;;;24.22;32.98;101210.22;4901355;29;20037;-70
2021/09/09 10:15:22;;;;;;;13.63;4.25;;;;;;;23.80;32.91;101212.00;4910154;29;20040;-71
2021/09/09 10:17:49;;;;;;;20.20;4.32;;;;;;;23.88;32.37;101192.03;4908603;29;20047;-70
2021/09/09 10:20:43;;;;;;;17.25;4.22;;;;;;;24.97;31.97;101206.78;4908588;29;20379;-69
2021/09/09 10:23:15;;;;;;;12.38;3.97;;;;;;;25.31;31.13;101183.72;4902602;29;20055;-71
2021/09/09 10:25:46;;;;;;;8.73;3.25;;;;;;;25.73;30.30;101192.38;4901229;29;20529;-70
2021/09/09 10:28:33;;;;;;;17.25;4.40;;;;;;;25.00;31.46;101214.69;4897952;29;20036;-71
2021/09/09 10:31:21;;;;;;;13.02;4.05;;;;;;;24.70;32.30;101203.59;4909373;29;20036;-72
2021/09/09 10:33:51;;;;;;;15.10;3.88;;;;;;;25.33;32.19;101197.06;4908837;29;20028;-70
2021/09/09 10:36:35;;;;;;;10.65;3.70;;;;;;;25.14;31.66;101199.75;4898781;29;20048;-70
2021/09/09 10:39:01;;;;;;;9.70;3.38;;;;;;;25.77;31.02;101200.22;4893745;29;20044;-71
2021/09/09 10:41:28;;;;;;;6.90;3.33;;;;;;;25.86;30.54;101197.09;4908594;29;20123;-70
2021/09/09 10:43:58;;;;;;;10.43;4.47;;;;;;;26.61;29.55;101191.41;4901669;29;20040;-70
2021/09/09 10:46:33;;;;;;;10.50;4.25;;;;;;;26.83;28.57;101173.13;4902202;29;20041;-69
2021/09/09 10:49:06;;;;;;;6.78;3.28;;;;;;;27.48;28.13;101191.00;4905040;29;20052;-70
2021/09/09 10:51:32;;;;;;;6.43;2.90;;;;;;;27.04;27.79;101187.19;4906051;29;20043;-69
2021/09/09 10:53:58;;;;;;;5.47;3.70;;;;;;;26.42;27.74;101180.72;4903251;29;20029;-70
2021/09/09 10:56:35;;;;;;;13.30;4.25;;;;;;;25.47;29.32;101149.78;4891846;29;20032;-68
2021/09/09 10:59:13;;;;;;;10.18;4.55;;;;;;;26.66;29.27;101168.66;4904646;29;20036;-69
2021/09/09 11:01:43;;;;;;;5.03;3.65;;;;;;;25.19;29.46;101144.00;4905696;29;20101;-70
2021/09/09 11:04:28;;;;;;;8.82;4.75;;;;;;;26.05;28.23;101162.03;4901240;29;20133;-71
2021/09/09 11:06:54;;;;;;;10.00;4.38;;;;;;;26.39;28.40;101144.09;4906741;29;20043;-71
2021/09/09 11:09:20;;;;;;;9.68;3.97;;;;;;;25.74;28.38;101161.88;4906073;29;20044;-72
2021/09/09 11:11:55;;;;;;;11.80;3.95;;;;;;;26.20;28.64;101149.59;4897901;29;20406;-69
2021/09/09 11:14:22;;;;;;;9.38;4.20;;;;;;;26.48;28.26;101154.34;4896040;29;20051;-72
2021/09/09 11:16:48;;;;;;;6.68;3.63;;;;;;;26.69;27.22;101154.13;4899646;29;20071;-71
2021/09/09 11:19:20;;;;;;;9.70;3.53;;;;;;;26.84;27.05;101147.91;4900874;29;20036;-70